sensor_id;sensor_type;location;lat;lon;timestamp;pressure;altitude;pressure_sealevel;temperature;humidity
30302;BME280;17111;52.130;5.028;2023-06-10T00:00:47;101608.03;;;25.62;48.52
30302;BME280;17111;52.130;5.028;2023-06-10T00:03:13;101600.72;;;25.62;48.68
30302;BME280;17111;52.130;5.028;2023-06-10T00:05:41;101611.56;;;25.62;48.69
30302;BME280;17111;52.130;5.028;2023-06-10T00:08:07;101609.03;;;25.60;48.35
30302;BME280;17111;52.130;5.028;2023-06-10T00:10:34;101609.03;;;25.60;48.99
30302;BME280;17111;52.130;5.028;2023-06-10T00:13:06;101614.66;;;25.59;48.78
30302;BME280;17111;52.130;5.028;2023-06-10T00:15:35;101614.66;;;25.59;48.64
30302;BME280;17111;52.130;5.028;2023-06-10T00:18:03;101613.81;;;25.58;48.54
30302;BME280;17111;52.130;5.028;2023-06-10T00:20:30;101619.44;;;25.57;48.97
30302;BME280;17111;52.130;5.028;2023-06-10T00:23:00;101617.72;;;25.56;49.26
30302;BME280;17111;52.130;5.028;2023-06-10T00:25:27;101622.31;;;25.55;49.03
30302;BME280;17111;52.130;5.028;2023-06-10T00:27:55;101620.63;;;25.54;48.91
30302;BME280;17111;52.130;5.028;2023-06-10T00:30:22;101612.69;;;25.53;48.98
30302;BME280;17111;52.130;5.028;2023-06-10T00:32:48;101621.00;;;25.51;49.38
30302;BME280;17111;52.130;5.028;2023-06-10T00:35:15;101618.47;;;25.50;49.20
30302;BME280;17111;52.130;5.028;2023-06-10T00:37:42;101620.34;;;25.49;48.88
30302;BME280;17111;52.130;5.028;2023-06-10T00:40:09;101623.06;;;25.49;49.21
30302;BME280;17111;52.130;5.028;2023-06-10T00:42:36;101623.25;;;25.48;49.37
30302;BME280;17111;52.130;5.028;2023-06-10T00:45:02;101619.03;;;25.45;49.26
30302;BME280;17111;52.130;5.028;2023-06-10T00:47:30;101623.78;;;25.43;48.94
30302;BME280;17111;52.130;5.028;2023-06-10T00:49:59;101619.41;;;25.42;49.31
30302;BME280;17111;52.130;5.028;2023-06-10T00:52:28;101622.13;;;25.42;49.21
30302;BME280;17111;52.130;5.028;2023-06-10T00:54:55;101624.81;;;25.42;49.40
30302;BME280;17111;52.130;5.028;2023-06-10T00:57:22;101618.72;;;25.40;49.17
30302;BME280;17111;52.130;5.028;2023-06-10T00:59:49;101614.34;;;25.39;48.94
30302;BME280;17111;52.130;5.028;2023-06-10T01:02:16;101619.97;;;25.38;49.15
30302;BME280;17111;52.130;5.028;2023-06-10T01:04:43;101611.13;;;25.35;49.31
30302;BME280;17111;52.130;5.028;2023-06-10T01:07:19;101621.34;;;25.33;49.71
30302;BME280;17111;52.130;5.028;2023-06-10T01:10:05;101621.50;;;25.32;49.34
30302;BME280;17111;52.130;5.028;2023-06-10T01:13:02;101619.84;;;25.31;49.50
30302;BME280;17111;52.130;5.028;2023-06-10T01:15:30;101629.00;;;25.30;49.65
30302;BME280;17111;52.130;5.028;2023-06-10T01:20:30;101628.34;;;25.28;49.59
30302;BME280;17111;52.130;5.028;2023-06-10T01:22:59;101628.53;;;25.26;49.51
30302;BME280;17111;52.130;5.028;2023-06-10T01:25:27;101631.44;;;25.25;49.57
30302;BME280;17111;52.130;5.028;2023-06-10T01:30:45;101629.09;;;25.22;49.47
30302;BME280;17111;52.130;5.028;2023-06-10T01:33:14;101632.63;;;25.22;49.97
30302;BME280;17111;52.130;5.028;2023-06-10T01:35:43;101623.81;;;25.20;49.70
30302;BME280;17111;52.130;5.028;2023-06-10T01:38:12;101626.72;;;25.19;49.46
30302;BME280;17111;52.130;5.028;2023-06-10T01:40:41;101622.34;;;25.18;49.61
30302;BME280;17111;52.130;5.028;2023-06-10T01:43:08;101627.09;;;25.16;49.86
30302;BME280;17111;52.130;5.028;2023-06-10T01:45:35;101630.00;;;25.14;49.86
30302;BME280;17111;52.130;5.028;2023-06-10T01:48:02;101617.63;;;25.11;50.04
30302;BME280;17111;52.130;5.028;2023-06-10T01:50:28;101620.34;;;25.11;50.17
30302;BME280;17111;52.130;5.028;2023-06-10T01:52:57;101630.34;;;25.11;49.99
30302;BME280;17111;52.130;5.028;2023-06-10T01:55:24;101627.97;;;25.08;49.93
30302;BME280;17111;52.130;5.028;2023-06-10T01:57:51;101627.97;;;25.08;50.31
30302;BME280;17111;52.130;5.028;2023-06-10T02:00:18;101632.72;;;25.06;50.13
30302;BME280;17111;52.130;5.028;2023-06-10T02:02:44;101631.91;;;25.05;49.95
30302;BME280;17111;52.130;5.028;2023-06-10T02:05:11;101632.91;;;25.04;50.15
30302;BME280;17111;52.130;5.028;2023-06-10T02:07:38;101623.09;;;25.03;50.17
30302;BME280;17111;52.130;5.028;2023-06-10T02:10:05;101630.56;;;25.01;50.02
30302;BME280;17111;52.130;5.028;2023-06-10T02:12:32;101628.69;;;25.02;49.91
30302;BME280;17111;52.130;5.028;2023-06-10T02:14:59;101630.56;;;25.01;49.86
30302;BME280;17111;52.130;5.028;2023-06-10T02:17:25;101630.72;;;25.00;50.31
30302;BME280;17111;52.130;5.028;2023-06-10T02:19:52;101631.56;;;25.00;50.21
30302;BME280;17111;52.130;5.028;2023-06-10T02:22:21;101629.06;;;24.99;50.30
30302;BME280;17111;52.130;5.028;2023-06-10T02:24:47;101636.53;;;24.97;50.25
30302;BME280;17111;52.130;5.028;2023-06-10T02:27:15;101637.38;;;24.97;50.00
30302;BME280;17111;52.130;5.028;2023-06-10T02:29:42;101636.69;;;24.95;49.79
30302;BME280;17111;52.130;5.028;2023-06-10T02:32:09;101639.41;;;24.95;49.88
30302;BME280;17111;52.130;5.028;2023-06-10T02:34:37;101636.06;;;24.93;50.18
30302;BME280;17111;52.130;5.028;2023-06-10T02:37:04;101635.88;;;24.95;50.02
30302;BME280;17111;52.130;5.028;2023-06-10T02:39:30;101637.94;;;24.93;49.72
30302;BME280;17111;52.130;5.028;2023-06-10T02:41:57;101642.47;;;24.92;50.06
30302;BME280;17111;52.130;5.028;2023-06-10T02:44:24;101639.97;;;24.91;49.92
30302;BME280;17111;52.130;5.028;2023-06-10T02:46:50;101641.00;;;24.90;49.80
30302;BME280;17111;52.130;5.028;2023-06-10T02:49:17;101636.59;;;24.89;49.88
30302;BME280;17111;52.130;5.028;2023-06-10T02:51:44;101637.59;;;24.87;50.04
30302;BME280;17111;52.130;5.028;2023-06-10T02:54:10;101641.34;;;24.86;49.78
30302;BME280;17111;52.130;5.028;2023-06-10T02:56:37;101638.81;;;24.85;49.66
30302;BME280;17111;52.130;5.028;2023-06-10T02:59:08;101638.81;;;24.85;49.87
30302;BME280;17111;52.130;5.028;2023-06-10T03:01:34;101640.50;;;24.86;50.30
30302;BME280;17111;52.130;5.028;2023-06-10T03:04:06;101639.81;;;24.84;50.13
30302;BME280;17111;52.130;5.028;2023-06-10T03:06:33;101634.41;;;24.84;49.92
30302;BME280;17111;52.130;5.028;2023-06-10T03:09:00;101643.56;;;24.83;49.76
30302;BME280;17111;52.130;5.028;2023-06-10T03:11:27;101637.31;;;24.82;50.17
30302;BME280;17111;52.130;5.028;2023-06-10T03:13:53;101636.63;;;24.80;50.34
30302;BME280;17111;52.130;5.028;2023-06-10T03:16:20;101638.50;;;24.80;49.75
30302;BME280;17111;52.130;5.028;2023-06-10T03:18:48;101643.91;;;24.80;50.04
30302;BME280;17111;52.130;5.028;2023-06-10T03:21:15;101641.22;;;24.80;49.79
30302;BME280;17111;52.130;5.028;2023-06-10T03:23:41;101637.66;;;24.79;49.69
30302;BME280;17111;52.130;5.028;2023-06-10T03:26:08;101638.50;;;24.80;50.35
30302;BME280;17111;52.130;5.028;2023-06-10T03:28:36;101641.41;;;24.78;49.87
30302;BME280;17111;52.130;5.028;2023-06-10T03:31:03;101644.94;;;24.79;49.99
30302;BME280;17111;52.130;5.028;2023-06-10T03:33:29;101647.66;;;24.79;49.83
30302;BME280;17111;52.130;5.028;2023-06-10T03:35:56;101651.41;;;24.78;50.32
30302;BME280;17111;52.130;5.028;2023-06-10T03:38:23;101637.84;;;24.78;49.76
30302;BME280;17111;52.130;5.028;2023-06-10T03:40:49;101645.97;;;24.78;50.46
30302;BME280;17111;52.130;5.028;2023-06-10T03:43:16;101645.97;;;24.78;49.89
30302;BME280;17111;52.130;5.028;2023-06-10T03:45:42;101649.72;;;24.77;50.02
30302;BME280;17111;52.130;5.028;2023-06-10T03:48:09;101643.44;;;24.76;50.65
30302;BME280;17111;52.130;5.028;2023-06-10T03:50:37;101653.44;;;24.76;50.53
30302;BME280;17111;52.130;5.028;2023-06-10T03:53:04;101652.44;;;24.77;50.07
30302;BME280;17111;52.130;5.028;2023-06-10T03:55:30;101656.16;;;24.76;49.96
30302;BME280;17111;52.130;5.028;2023-06-10T03:57:57;101656.16;;;24.76;50.29
30302;BME280;17111;52.130;5.028;2023-06-10T04:00:24;101659.69;;;24.76;50.57
30302;BME280;17111;52.130;5.028;2023-06-10T04:02:51;101662.59;;;24.75;50.11
30302;BME280;17111;52.130;5.028;2023-06-10T04:05:19;101660.72;;;24.75;50.17
30302;BME280;17111;52.130;5.028;2023-06-10T04:07:49;101663.44;;;24.75;49.87
30302;BME280;17111;52.130;5.028;2023-06-10T04:10:15;101668.88;;;24.75;50.19
30302;BME280;17111;52.130;5.028;2023-06-10T04:12:44;101662.59;;;24.75;49.98
30302;BME280;17111;52.130;5.028;2023-06-10T04:15:10;101659.88;;;24.75;50.34
30302;BME280;17111;52.130;5.028;2023-06-10T04:17:38;101661.75;;;24.74;50.04
30302;BME280;17111;52.130;5.028;2023-06-10T04:20:05;101661.75;;;24.74;49.79
30302;BME280;17111;52.130;5.028;2023-06-10T04:22:34;101676.16;;;24.75;50.33
30302;BME280;17111;52.130;5.028;2023-06-10T04:25:00;101668.03;;;24.75;49.80
30302;BME280;17111;52.130;5.028;2023-06-10T04:27:27;101679.91;;;24.74;50.45
30302;BME280;17111;52.130;5.028;2023-06-10T04:29:54;101685.13;;;24.75;50.33
30302;BME280;17111;52.130;5.028;2023-06-10T04:32:20;101683.44;;;24.74;49.99
30302;BME280;17111;52.130;5.028;2023-06-10T04:34:48;101683.44;;;24.74;50.22
30302;BME280;17111;52.130;5.028;2023-06-10T04:37:15;101687.00;;;24.75;50.12
30302;BME280;17111;52.130;5.028;2023-06-10T04:39:41;101685.13;;;24.75;50.18
30302;BME280;17111;52.130;5.028;2023-06-10T04:42:08;101685.13;;;24.75;49.92
30302;BME280;17111;52.130;5.028;2023-06-10T04:44:35;101685.97;;;24.76;50.15
30302;BME280;17111;52.130;5.028;2023-06-10T04:47:01;101689.38;;;24.78;50.29
30302;BME280;17111;52.130;5.028;2023-06-10T04:49:28;101690.19;;;24.78;50.07
30302;BME280;17111;52.130;5.028;2023-06-10T04:51:56;101689.16;;;24.79;49.97
30302;BME280;17111;52.130;5.028;2023-06-10T04:54:22;101694.44;;;24.81;49.93
30302;BME280;17111;52.130;5.028;2023-06-10T04:56:49;101694.06;;;24.84;50.07
30302;BME280;17111;52.130;5.028;2023-06-10T04:59:15;101693.91;;;24.85;49.83
30302;BME280;17111;52.130;5.028;2023-06-10T05:01:42;101695.38;;;24.88;49.47
30302;BME280;17111;52.130;5.028;2023-06-10T05:04:09;101695.22;;;24.90;49.86
30302;BME280;17111;52.130;5.028;2023-06-10T05:06:36;101696.72;;;24.92;49.99
30302;BME280;17111;52.130;5.028;2023-06-10T05:09:03;101697.41;;;24.94;49.68
30302;BME280;17111;52.130;5.028;2023-06-10T05:11:29;101694.50;;;24.96;49.87
30302;BME280;17111;52.130;5.028;2023-06-10T05:13:56;101691.63;;;24.97;49.32
30302;BME280;17111;52.130;5.028;2023-06-10T05:16:23;101693.13;;;25.00;49.74
30302;BME280;17111;52.130;5.028;2023-06-10T05:18:50;101699.22;;;25.02;49.34
30302;BME280;17111;52.130;5.028;2023-06-10T05:21:18;101691.94;;;25.02;49.59
30302;BME280;17111;52.130;5.028;2023-06-10T05:23:45;101690.91;;;25.03;50.12
30302;BME280;17111;52.130;5.028;2023-06-10T05:26:11;101689.88;;;25.04;49.51
30302;BME280;17111;52.130;5.028;2023-06-10T05:28:38;101691.56;;;25.05;49.57
30302;BME280;17111;52.130;5.028;2023-06-10T05:31:05;101690.53;;;25.06;49.96
30302;BME280;17111;52.130;5.028;2023-06-10T05:33:31;101687.63;;;25.08;49.32
30302;BME280;17111;52.130;5.028;2023-06-10T05:35:58;101694.81;;;25.09;49.11
30302;BME280;17111;52.130;5.028;2023-06-10T05:38:24;101688.34;;;25.10;49.70
30302;BME280;17111;52.130;5.028;2023-06-10T05:40:51;101690.88;;;25.11;49.04
30302;BME280;17111;52.130;5.028;2023-06-10T05:43:18;101691.72;;;25.12;49.10
30302;BME280;17111;52.130;5.028;2023-06-10T05:45:44;101697.13;;;25.12;49.18
30302;BME280;17111;52.130;5.028;2023-06-10T05:48:11;101692.56;;;25.13;49.40
30302;BME280;17111;52.130;5.028;2023-06-10T05:50:37;101701.56;;;25.13;48.78
30302;BME280;17111;52.130;5.028;2023-06-10T05:53:06;101704.09;;;25.15;48.23
30302;BME280;17111;52.130;5.028;2023-06-10T05:55:34;101701.38;;;25.15;47.35
30302;BME280;17111;52.130;5.028;2023-06-10T05:58:01;101697.81;;;25.14;47.32
30302;BME280;17111;52.130;5.028;2023-06-10T06:00:28;101697.81;;;25.14;47.19
30302;BME280;17111;52.130;5.028;2023-06-10T06:02:54;101709.50;;;25.15;47.05
30302;BME280;17111;52.130;5.028;2023-06-10T06:05:24;101704.28;;;25.13;46.82
30302;BME280;17111;52.130;5.028;2023-06-10T06:07:50;101712.22;;;25.15;46.62
30302;BME280;17111;52.130;5.028;2023-06-10T06:10:17;101705.97;;;25.14;46.38
30302;BME280;17111;52.130;5.028;2023-06-10T06:12:44;101706.78;;;25.15;46.18
30302;BME280;17111;52.130;5.028;2023-06-10T06:15:11;101706.78;;;25.15;46.15
30302;BME280;17111;52.130;5.028;2023-06-10T06:17:38;101697.81;;;25.14;46.72
30302;BME280;17111;52.130;5.028;2023-06-10T06:20:05;101701.38;;;25.15;46.78
30302;BME280;17111;52.130;5.028;2023-06-10T06:22:32;101697.81;;;25.14;46.52
30302;BME280;17111;52.130;5.028;2023-06-10T06:24:58;101697.81;;;25.14;46.08
30302;BME280;17111;52.130;5.028;2023-06-10T06:27:25;101696.13;;;25.13;46.35
30302;BME280;17111;52.130;5.028;2023-06-10T06:29:52;101698.84;;;25.13;46.24
30302;BME280;17111;52.130;5.028;2023-06-10T06:32:19;101705.97;;;25.14;46.15
30302;BME280;17111;52.130;5.028;2023-06-10T06:34:46;101695.94;;;25.15;45.92
30302;BME280;17111;52.130;5.028;2023-06-10T06:37:12;101698.66;;;25.15;45.94
30302;BME280;17111;52.130;5.028;2023-06-10T06:39:39;101696.78;;;25.15;46.27
30302;BME280;17111;52.130;5.028;2023-06-10T06:42:06;101698.66;;;25.15;46.37
30302;BME280;17111;52.130;5.028;2023-06-10T06:44:32;101699.34;;;25.17;46.92
30302;BME280;17111;52.130;5.028;2023-06-10T06:46:59;101694.75;;;25.17;47.13
30302;BME280;17111;52.130;5.028;2023-06-10T06:49:26;101693.91;;;25.17;47.00
30302;BME280;17111;52.130;5.028;2023-06-10T06:51:52;101699.13;;;25.18;46.75
30302;BME280;17111;52.130;5.028;2023-06-10T06:54:19;101699.97;;;25.19;47.24
30302;BME280;17111;52.130;5.028;2023-06-10T06:56:45;101705.41;;;25.19;47.14
30302;BME280;17111;52.130;5.028;2023-06-10T06:59:12;101712.50;;;25.20;47.31
30302;BME280;17111;52.130;5.028;2023-06-10T07:01:40;101711.69;;;25.19;47.26
30302;BME280;17111;52.130;5.028;2023-06-10T07:04:06;101712.50;;;25.20;46.64
30302;BME280;17111;52.130;5.028;2023-06-10T07:06:33;101708.97;;;25.19;47.28
30302;BME280;17111;52.130;5.028;2023-06-10T07:09:04;101714.22;;;25.21;47.53
30302;BME280;17111;52.130;5.028;2023-06-10T07:11:31;101709.81;;;25.20;47.45
30302;BME280;17111;52.130;5.028;2023-06-10T07:13:57;101713.19;;;25.22;47.25
30302;BME280;17111;52.130;5.028;2023-06-10T07:16:24;101713.19;;;25.22;47.81
30302;BME280;17111;52.130;5.028;2023-06-10T07:18:52;101713.19;;;25.22;47.62
30302;BME280;17111;52.130;5.028;2023-06-10T07:21:19;101711.31;;;25.22;47.53
30302;BME280;17111;52.130;5.028;2023-06-10T07:23:46;101714.88;;;25.23;47.67
30302;BME280;17111;52.130;5.028;2023-06-10T07:26:13;101711.13;;;25.24;47.35
30302;BME280;17111;52.130;5.028;2023-06-10T07:28:41;101712.84;;;25.25;47.98
30302;BME280;17111;52.130;5.028;2023-06-10T07:31:08;101715.56;;;25.25;47.64
30302;BME280;17111;52.130;5.028;2023-06-10T07:33:34;101717.41;;;25.24;47.64
30302;BME280;17111;52.130;5.028;2023-06-10T07:36:03;101718.28;;;25.25;47.60
30302;BME280;17111;52.130;5.028;2023-06-10T07:38:29;101720.97;;;25.25;47.25
30302;BME280;17111;52.130;5.028;2023-06-10T07:40:56;101718.28;;;25.25;47.49
30302;BME280;17111;52.130;5.028;2023-06-10T07:43:24;101721.81;;;25.25;47.41
30302;BME280;17111;52.130;5.028;2023-06-10T07:45:51;101722.47;;;25.27;47.46
30302;BME280;17111;52.130;5.028;2023-06-10T07:48:17;101724.16;;;25.28;47.41
30302;BME280;17111;52.130;5.028;2023-06-10T07:50:44;101722.31;;;25.29;47.74
30302;BME280;17111;52.130;5.028;2023-06-10T07:53:11;101726.88;;;25.28;47.49
30302;BME280;17111;52.130;5.028;2023-06-10T07:55:37;101726.72;;;25.30;47.77
30302;BME280;17111;52.130;5.028;2023-06-10T07:58:04;101726.72;;;25.30;47.50
30302;BME280;17111;52.130;5.028;2023-06-10T08:00:31;101726.72;;;25.30;47.51
30302;BME280;17111;52.130;5.028;2023-06-10T08:02:57;101730.25;;;25.30;47.70
30302;BME280;17111;52.130;5.028;2023-06-10T08:05:24;101738.41;;;25.30;47.93
30302;BME280;17111;52.130;5.028;2023-06-10T08:07:51;101730.25;;;25.30;47.96
30302;BME280;17111;52.130;5.028;2023-06-10T08:10:17;101724.84;;;25.30;47.50
30302;BME280;17111;52.130;5.028;2023-06-10T08:12:44;101732.78;;;25.32;47.57
30302;BME280;17111;52.130;5.028;2023-06-10T08:15:11;101727.34;;;25.32;47.62
30302;BME280;17111;52.130;5.028;2023-06-10T08:17:38;101721.09;;;25.31;47.71
30302;BME280;17111;52.130;5.028;2023-06-10T08:20:06;101724.63;;;25.32;47.61
30302;BME280;17111;52.130;5.028;2023-06-10T08:22:33;101720.06;;;25.32;47.73
30302;BME280;17111;52.130;5.028;2023-06-10T08:25:00;101721.94;;;25.32;47.67
30302;BME280;17111;52.130;5.028;2023-06-10T08:27:26;101719.22;;;25.32;47.16
30302;BME280;17111;52.130;5.028;2023-06-10T08:29:53;101718.38;;;25.31;47.69
30302;BME280;17111;52.130;5.028;2023-06-10T08:32:20;101724.63;;;25.32;47.12
30302;BME280;17111;52.130;5.028;2023-06-10T08:34:47;101720.94;;;25.33;47.60
30302;BME280;17111;52.130;5.028;2023-06-10T08:37:13;101724.63;;;25.32;47.37
30302;BME280;17111;52.130;5.028;2023-06-10T08:39:40;101716.34;;;25.33;47.42
30302;BME280;17111;52.130;5.028;2023-06-10T08:44:35;101716.34;;;25.33;47.50
30302;BME280;17111;52.130;5.028;2023-06-10T08:47:15;101726.34;;;25.33;47.60
30302;BME280;17111;52.130;5.028;2023-06-10T08:49:44;101718.84;;;25.35;47.46
30302;BME280;17111;52.130;5.028;2023-06-10T08:52:17;101728.03;;;25.34;47.50
30302;BME280;17111;52.130;5.028;2023-06-10T08:54:57;101722.59;;;25.34;47.64
30302;BME280;17111;52.130;5.028;2023-06-10T08:57:26;101721.56;;;25.35;47.25
30302;BME280;17111;52.130;5.028;2023-06-10T08:59:53;101725.13;;;25.35;47.44
30302;BME280;17111;52.130;5.028;2023-06-10T09:02:21;101729.53;;;25.36;47.36
30302;BME280;17111;52.130;5.028;2023-06-10T09:04:49;101727.69;;;25.37;47.40
30302;BME280;17111;52.130;5.028;2023-06-10T09:07:16;101723.09;;;25.38;47.23
30302;BME280;17111;52.130;5.028;2023-06-10T09:09:43;101722.25;;;25.37;47.65
30302;BME280;17111;52.130;5.028;2023-06-10T09:12:13;101722.91;;;25.39;47.22
30302;BME280;17111;52.130;5.028;2023-06-10T09:14:40;101727.28;;;25.40;47.53
30302;BME280;17111;52.130;5.028;2023-06-10T09:17:07;101724.41;;;25.42;47.22
30302;BME280;17111;52.130;5.028;2023-06-10T09:19:35;101731.53;;;25.43;46.99
30302;BME280;17111;52.130;5.028;2023-06-10T09:22:02;101727.63;;;25.45;47.06
30302;BME280;17111;52.130;5.028;2023-06-10T09:24:28;101731.16;;;25.46;47.26
30302;BME280;17111;52.130;5.028;2023-06-10T09:27:06;101724.50;;;25.48;47.37
30302;BME280;17111;52.130;5.028;2023-06-10T09:29:46;101719.56;;;25.52;47.33
30302;BME280;17111;52.130;5.028;2023-06-10T09:32:15;101720.25;;;25.54;47.10
30302;BME280;17111;52.130;5.028;2023-06-10T09:34:43;101724.44;;;25.56;47.16
30302;BME280;17111;52.130;5.028;2023-06-10T09:37:10;101729.53;;;25.59;47.16
30302;BME280;17111;52.130;5.028;2023-06-10T09:39:39;101719.34;;;25.62;47.18
30302;BME280;17111;52.130;5.028;2023-06-10T09:42:18;101723.38;;;25.66;47.58
30302;BME280;17111;52.130;5.028;2023-06-10T09:44:52;101730.28;;;25.68;46.98
30302;BME280;17111;52.130;5.028;2023-06-10T09:47:22;101719.91;;;25.72;47.17
30302;BME280;17111;52.130;5.028;2023-06-10T09:49:50;101721.22;;;25.76;46.94
30302;BME280;17111;52.130;5.028;2023-06-10T09:52:24;101723.81;;;25.77;46.77
30302;BME280;17111;52.130;5.028;2023-06-10T09:54:52;101724.28;;;25.81;47.13
30302;BME280;17111;52.130;5.028;2023-06-10T09:57:21;101727.66;;;25.83;46.88
30302;BME280;17111;52.130;5.028;2023-06-10T09:59:52;101724.56;;;25.86;46.79
30302;BME280;17111;52.130;5.028;2023-06-10T10:02:19;101717.06;;;25.88;46.65
30302;BME280;17111;52.130;5.028;2023-06-10T10:04:46;101718.59;;;25.91;46.90
30302;BME280;17111;52.130;5.028;2023-06-10T10:07:13;101715.50;;;25.94;46.38
30302;BME280;17111;52.130;5.028;2023-06-10T10:09:41;101723.47;;;25.95;46.64
30302;BME280;17111;52.130;5.028;2023-06-10T10:12:15;101713.25;;;25.97;46.52
30302;BME280;17111;52.130;5.028;2023-06-10T10:14:46;101712.88;;;26.00;46.93
30302;BME280;17111;52.130;5.028;2023-06-10T10:17:15;101708.13;;;26.02;46.65
30302;BME280;17111;52.130;5.028;2023-06-10T10:19:50;101711.47;;;26.04;46.65
30302;BME280;17111;52.130;5.028;2023-06-10T10:22:25;101700.44;;;26.06;46.71
30302;BME280;17111;52.130;5.028;2023-06-10T10:24:57;101709.22;;;26.08;46.58
30302;BME280;17111;52.130;5.028;2023-06-10T10:27:33;101709.06;;;26.09;46.66
30302;BME280;17111;52.130;5.028;2023-06-10T10:30:03;101704.25;;;26.12;46.80
30302;BME280;17111;52.130;5.028;2023-06-10T10:32:38;101710.19;;;26.15;46.68
30302;BME280;17111;52.130;5.028;2023-06-10T10:35:21;101704.75;;;26.15;46.47
30302;BME280;17111;52.130;5.028;2023-06-10T10:37:52;101698.75;;;26.20;46.67
30302;BME280;17111;52.130;5.028;2023-06-10T10:40:20;101701.47;;;26.20;46.60
30302;BME280;17111;52.130;5.028;2023-06-10T10:42:51;101704.84;;;26.22;46.46
30302;BME280;17111;52.130;5.028;2023-06-10T10:45:18;101687.50;;;26.23;46.53
30302;BME280;17111;52.130;5.028;2023-06-10T10:47:46;101682.72;;;26.25;46.27
30302;BME280;17111;52.130;5.028;2023-06-10T10:50:18;101686.94;;;26.27;46.51
30302;BME280;17111;52.130;5.028;2023-06-10T10:52:52;101685.06;;;26.28;46.50
30302;BME280;17111;52.130;5.028;2023-06-10T10:55:20;101695.56;;;26.31;46.53
30302;BME280;17111;52.130;5.028;2023-06-10T10:58:13;101683.84;;;26.30;46.44
30302;BME280;17111;52.130;5.028;2023-06-10T11:00:45;101684.31;;;26.34;46.56
30302;BME280;17111;52.130;5.028;2023-06-10T11:03:14;101682.25;;;26.36;46.38
30302;BME280;17111;52.130;5.028;2023-06-10T11:05:46;101680.34;;;26.37;46.52
30302;BME280;17111;52.130;5.028;2023-06-10T11:11:20;101677.28;;;26.40;46.40
30302;BME280;17111;52.130;5.028;2023-06-10T11:16:41;101672.13;;;26.45;46.22
30302;BME280;17111;52.130;5.028;2023-06-10T11:19:08;101678.41;;;26.45;46.35
30302;BME280;17111;52.130;5.028;2023-06-10T11:21:59;101667.53;;;26.45;46.17
30302;BME280;17111;52.130;5.028;2023-06-10T11:24:29;101667.81;;;26.50;46.20
30302;BME280;17111;52.130;5.028;2023-06-10T11:27:18;101657.13;;;26.49;46.21
30302;BME280;17111;52.130;5.028;2023-06-10T11:30:18;101665.13;;;26.50;46.30
30302;BME280;17111;52.130;5.028;2023-06-10T11:32:50;101660.97;;;26.54;46.04
30302;BME280;17111;52.130;5.028;2023-06-10T11:35:19;101664.34;;;26.56;46.16
30302;BME280;17111;52.130;5.028;2023-06-10T11:37:46;101666.03;;;26.57;46.10
30302;BME280;17111;52.130;5.028;2023-06-10T11:40:13;101663.13;;;26.59;45.83
30302;BME280;17111;52.130;5.028;2023-06-10T11:42:40;101662.09;;;26.60;46.25
30302;BME280;17111;52.130;5.028;2023-06-10T11:45:09;101659.19;;;26.62;46.06
30302;BME280;17111;52.130;5.028;2023-06-10T11:47:36;101655.22;;;26.64;45.87
30302;BME280;17111;52.130;5.028;2023-06-10T11:50:03;101652.50;;;26.64;45.81
30302;BME280;17111;52.130;5.028;2023-06-10T11:52:30;101656.72;;;26.67;46.06
30302;BME280;17111;52.130;5.028;2023-06-10T11:55:04;101658.41;;;26.68;45.80
30302;BME280;17111;52.130;5.028;2023-06-10T11:57:34;101649.22;;;26.69;45.96
30302;BME280;17111;52.130;5.028;2023-06-10T12:00:07;101640.03;;;26.70;45.73
30302;BME280;17111;52.130;5.028;2023-06-10T12:02:34;101646.13;;;26.72;45.87
30302;BME280;17111;52.130;5.028;2023-06-10T12:05:14;101645.06;;;26.73;45.64
30302;BME280;17111;52.130;5.028;2023-06-10T12:07:41;101639.63;;;26.73;45.75
30302;BME280;17111;52.130;5.028;2023-06-10T12:10:08;101638.63;;;26.74;45.73
30302;BME280;17111;52.130;5.028;2023-06-10T12:12:52;101633.81;;;26.76;45.61
30302;BME280;17111;52.130;5.028;2023-06-10T12:15:25;101629.22;;;26.76;45.47
30302;BME280;17111;52.130;5.028;2023-06-10T12:17:52;101625.44;;;26.77;45.77
30302;BME280;17111;52.130;5.028;2023-06-10T12:20:27;101619.84;;;26.79;45.85
30302;BME280;17111;52.130;5.028;2023-06-10T12:22:54;101626.94;;;26.80;45.35
30302;BME280;17111;52.130;5.028;2023-06-10T12:25:26;101623.19;;;26.81;45.70
30302;BME280;17111;52.130;5.028;2023-06-10T12:27:56;101622.16;;;26.82;45.74
30302;BME280;17111;52.130;5.028;2023-06-10T12:30:25;101619.47;;;26.82;45.41
30302;BME280;17111;52.130;5.028;2023-06-10T12:32:53;101614.84;;;26.82;45.48
30302;BME280;17111;52.130;5.028;2023-06-10T12:35:24;101609.22;;;26.84;45.55
30302;BME280;17111;52.130;5.028;2023-06-10T12:40:37;101619.25;;;26.83;45.22
30302;BME280;17111;52.130;5.028;2023-06-10T12:43:06;101621.75;;;26.85;45.69
30302;BME280;17111;52.130;5.028;2023-06-10T12:45:34;101627.03;;;26.87;45.03
30302;BME280;17111;52.130;5.028;2023-06-10T12:50:55;101620.53;;;26.88;45.37
30302;BME280;17111;52.130;5.028;2023-06-10T12:53:23;101623.25;;;26.88;45.68
30302;BME280;17111;52.130;5.028;2023-06-10T12:55:50;101617.63;;;26.89;45.32
30302;BME280;17111;52.130;5.028;2023-06-10T12:58:19;101624.94;;;26.89;45.47
30302;BME280;17111;52.130;5.028;2023-06-10T13:00:46;101615.94;;;26.88;45.46
30302;BME280;17111;52.130;5.028;2023-06-10T13:03:12;101624.09;;;26.88;45.24
30302;BME280;17111;52.130;5.028;2023-06-10T13:05:39;101623.06;;;26.89;45.39
30302;BME280;17111;52.130;5.028;2023-06-10T13:08:07;101621.22;;;26.90;45.05
30302;BME280;17111;52.130;5.028;2023-06-10T13:10:36;101620.16;;;26.91;45.30
30302;BME280;17111;52.130;5.028;2023-06-10T13:13:03;101613.88;;;26.90;45.26
30302;BME280;17111;52.130;5.028;2023-06-10T13:15:32;101609.06;;;26.92;45.21